aviador You're here:

KFOK Decoded Metar

WEST HAMPTON BEACH in NY, USA
Report Time2018-01-19 10:53:00
UTC Time2018-01-19 11:07:28
Flight Rules vfr VFR
Wind260° at 04 kt
W.Decomp.*RWY 24: 3.4 kt HW 2.2 kt RCW
RWY 33: 2.2 kt HW 3.4 kt LCW
RWY 19: 0.5 kt HW 4.0 kt RCW
W.Rank260° ranks 25
Current wind is below 260° avg. (7.9)
Visibility9999 m
Phenomena:N/A
Clouds:N/A
Expected CloudBase > 800 ft AGL from Temp-Dew spread
CeilingNone
Temp-10°C (ISA -25)
Dew Point-12°C (85% RH)
AAT-14.6°C
QNH1018 hPa
Density Alt-3,130 ft
Elevation108 ft
Report Wrong Elevation
Raw Report
KFOK 191053Z AUTO 26004KT 9SM CLR M10/M12 A3006 RMK AO2 SLP180
T11001122=

Extra information for KFOK:More info

Metar Taf Metar & Taf Last 4 Metars F.Rules Stats Wind Profile Meteogram Temp Stats Airport Information Weather charts Add Link Nearby VenuesMetar ALERT Operation Metar Decoded Social comments

AIRNAV info for KFOK